createdAt,value
2022-11-05T00:00:20.777Z,99657.10
2022-11-05T00:04:15.777Z,99656.98
2022-11-05T00:08:06.044Z,99650.23
2022-11-05T00:11:57.920Z,99648.14
2022-11-05T00:15:44.929Z,99652.80
2022-11-05T00:19:13.924Z,99643.95
2022-11-05T00:23:04.848Z,99646.39
2022-11-05T00:26:34.181Z,99642.45
2022-11-05T00:30:03.051Z,99645.30
2022-11-05T00:33:29.904Z,99643.48
2022-11-05T00:36:57.229Z,99645.60
2022-11-05T00:40:24.447Z,99648.05
2022-11-05T00:44:11.659Z,99653.65
2022-11-05T00:47:58.388Z,99656.13
2022-11-05T00:51:25.901Z,99651.49
2022-11-05T00:54:52.544Z,99647.40
2022-11-05T00:58:22.004Z,99658.20
2022-11-05T01:01:49.003Z,99655.02
2022-11-05T01:05:17.080Z,99647.27
2022-11-05T01:08:45.969Z,99647.15
2022-11-05T01:12:14.388Z,99656.41
2022-11-05T01:15:42.406Z,99651.49
2022-11-05T01:19:11.207Z,99655.48
2022-11-05T01:22:39.020Z,99654.61
2022-11-05T01:26:06.253Z,99648.88
2022-11-05T01:29:35.588Z,99645.30
2022-11-05T01:33:08.466Z,99642.81
2022-11-05T01:36:35.811Z,99648.35
2022-11-05T01:40:03.298Z,99648.26
2022-11-05T01:43:50.009Z,99649.95
2022-11-05T01:47:27.568Z,99651.89
2022-11-05T01:51:00.720Z,99655.92
2022-11-05T01:54:33.444Z,99661.19
2022-11-05T01:58:02.611Z,99665.77
2022-11-05T02:01:30.571Z,99665.69
2022-11-05T02:05:01.473Z,99665.04
2022-11-05T02:08:44.095Z,99668.89
2022-11-05T02:12:12.379Z,99663.73
2022-11-05T02:15:49.179Z,99666.04
2022-11-05T02:19:49.893Z,99668.33
2022-11-05T02:23:51.704Z,99667.92
2022-11-05T02:27:32.666Z,99670.48
2022-11-05T02:31:06.390Z,99669.14
2022-11-05T02:34:43.877Z,99675.27
2022-11-05T02:38:15.906Z,99669.55
2022-11-05T02:41:50.623Z,99672.67
2022-11-05T02:45:33.978Z,99672.86
2022-11-05T02:49:11.940Z,99670.90
2022-11-05T02:52:48.242Z,99670.60
2022-11-05T02:56:24.039Z,99671.70
2022-11-05T02:59:50.896Z,99671.48
2022-11-05T03:03:23.985Z,99669.81
2022-11-05T03:07:26.606Z,99667.80
2022-11-05T03:10:59.613Z,99664.30
2022-11-05T03:14:36.027Z,99661.71
2022-11-05T03:18:12.499Z,99661.67
2022-11-05T03:21:46.679Z,99666.48
2022-11-05T03:25:17.765Z,99666.70
2022-11-05T03:28:49.015Z,99672.47
2022-11-05T03:32:17.501Z,99673.39
2022-11-05T03:35:48.130Z,99680.69
2022-11-05T03:39:20.008Z,99679.58
2022-11-05T03:42:51.350Z,99684.74
2022-11-05T03:46:23.023Z,99684.60
2022-11-05T03:49:57.242Z,99688.59
2022-11-05T03:53:29.596Z,99695.48
2022-11-05T03:57:05.809Z,99695.77
2022-11-05T04:00:32.789Z,99700.91
2022-11-05T04:03:59.288Z,99703.37
2022-11-05T04:07:43.925Z,99710.19
2022-11-05T04:11:31.122Z,99713.41
2022-11-05T04:14:58.859Z,99728.02
2022-11-05T04:18:25.801Z,99734.13
2022-11-05T04:22:10.373Z,99748.64
2022-11-05T04:25:38.613Z,99755.34
2022-11-05T04:29:34.787Z,99761.38
2022-11-05T04:33:07.525Z,99769.71
2022-11-05T04:36:34.294Z,99773.38
2022-11-05T04:40:01.164Z,99772.94
2022-11-05T04:43:27.973Z,99769.25
2022-11-05T04:46:55.423Z,99771.70
2022-11-05T04:50:22.685Z,99766.95
2022-11-05T04:53:49.674Z,99773.52
2022-11-05T04:57:16.470Z,99774.15
2022-11-05T05:00:42.985Z,99779.18
2022-11-05T05:04:09.571Z,99785.65
2022-11-05T05:07:36.937Z,99792.27
2022-11-05T05:11:06.803Z,99802.09
2022-11-05T05:14:33.637Z,99801.39
2022-11-05T05:18:00.812Z,99798.55
2022-11-05T05:21:42.714Z,99801.96
2022-11-05T05:25:10.114Z,99804.15
2022-11-05T05:28:37.092Z,99804.77
2022-11-05T05:32:03.753Z,99806.66
2022-11-05T05:35:31.138Z,99815.55
2022-11-05T05:38:58.359Z,99827.89
2022-11-05T05:42:25.308Z,99837.98
2022-11-05T05:45:52.310Z,99838.46
2022-11-05T05:49:19.105Z,99847.39
2022-11-05T05:52:45.754Z,99857.02
2022-11-05T05:56:15.356Z,99851.83
2022-11-05T05:59:41.956Z,99856.71
2022-11-05T06:03:09.848Z,99859.42
2022-11-05T06:06:38.288Z,99861.52
2022-11-05T06:10:05.597Z,99864.53
2022-11-05T06:13:34.038Z,99866.27
2022-11-05T06:17:01.184Z,99875.73
2022-11-05T06:20:28.165Z,99882.12
2022-11-05T06:23:55.090Z,99883.16
2022-11-05T06:27:22.258Z,99879.04
2022-11-05T06:30:54.578Z,99885.52
2022-11-05T06:34:21.540Z,99885.04
2022-11-05T06:37:48.322Z,99894.88
2022-11-05T06:41:15.666Z,99897.87
2022-11-05T06:44:42.905Z,99911.49
2022-11-05T06:48:10.043Z,99922.52
2022-11-05T06:51:36.848Z,99940.42
2022-11-05T06:55:03.595Z,99953.56
2022-11-05T06:58:31.107Z,99963.38
2022-11-05T07:01:58.601Z,99972.23
2022-11-05T07:05:26.287Z,99974.45
2022-11-05T07:08:52.946Z,99973.08
2022-11-05T07:12:20.237Z,99975.85
2022-11-05T07:15:47.254Z,99977.45
2022-11-05T07:19:14.638Z,99984.20
2022-11-05T07:22:41.771Z,99994.47
2022-11-05T07:26:08.519Z,99995.59
2022-11-05T07:29:35.530Z,100011.06
2022-11-05T07:33:02.682Z,100023.35
2022-11-05T07:36:29.854Z,100027.46
2022-11-05T07:39:57.458Z,100021.36
2022-11-05T07:43:24.515Z,100026.83
2022-11-05T07:46:51.205Z,100046.48
2022-11-05T07:50:23.475Z,100056.77
2022-11-05T07:53:50.755Z,100052.35
2022-11-05T07:57:17.754Z,100057.64
2022-11-05T08:00:44.827Z,100069.39
2022-11-05T08:04:13.246Z,100078.34
2022-11-05T08:07:40.382Z,100089.63
2022-11-05T08:11:08.833Z,100098.92
2022-11-05T08:14:35.798Z,100102.08
2022-11-05T08:18:03.797Z,100098.23
2022-11-05T08:21:30.718Z,100092.04
2022-11-05T08:25:00.343Z,100075.47
2022-11-05T08:28:30.011Z,100072.91
2022-11-05T08:31:59.833Z,100069.23
2022-11-05T08:35:26.329Z,100070.59
2022-11-05T08:38:53.152Z,100078.39
2022-11-05T08:42:19.863Z,100091.31
2022-11-05T08:45:46.752Z,100099.54
2022-11-05T08:49:14.383Z,100114.75
2022-11-05T08:52:44.225Z,100118.65
2022-11-05T08:56:11.840Z,100123.01
2022-11-05T08:59:38.621Z,100136.23
2022-11-05T09:03:07.450Z,100138.42
2022-11-05T09:06:36.407Z,100136.34
2022-11-05T09:10:03.947Z,100144.45
2022-11-05T09:13:31.309Z,100149.10
2022-11-05T09:16:59.530Z,100152.27
2022-11-05T09:20:27.251Z,100158.27
2022-11-05T09:23:53.764Z,100167.10
2022-11-05T09:27:21.574Z,100180.51
2022-11-05T09:30:50.427Z,100180.85
2022-11-05T09:34:17.770Z,100181.05
2022-11-05T09:37:44.509Z,100192.14
2022-11-05T09:41:20.107Z,100192.02
2022-11-05T09:44:52.395Z,100192.61
2022-11-05T09:48:24.622Z,100194.24
2022-11-05T09:51:52.092Z,100186.44
2022-11-05T09:55:28.385Z,100199.38
2022-11-05T09:59:00.479Z,100213.15
2022-11-05T10:02:32.303Z,100225.42
2022-11-05T10:06:09.239Z,100233.48
2022-11-05T10:09:43.698Z,100230.21
2022-11-05T10:13:22.759Z,100233.96
2022-11-05T10:16:55.509Z,100239.09
2022-11-05T10:20:29.865Z,100250.57
2022-11-05T10:23:57.432Z,100256.40
2022-11-05T10:27:29.476Z,100265.09
2022-11-05T10:31:00.932Z,100266.11
2022-11-05T10:34:33.890Z,100275.34
2022-11-05T10:38:01.688Z,100283.77
2022-11-05T10:41:44.799Z,100289.69
2022-11-05T10:45:22.088Z,100301.91
2022-11-05T10:49:08.808Z,100305.77
2022-11-05T10:52:39.739Z,100310.45
2022-11-05T10:56:26.890Z,100319.45
2022-11-05T10:59:54.390Z,100322.05
2022-11-05T11:03:42.608Z,100321.36
2022-11-05T11:07:23.353Z,100325.42
2022-11-05T11:10:54.867Z,100334.50
2022-11-05T11:14:24.763Z,100335.71
2022-11-05T11:17:53.089Z,100336.05
2022-11-05T11:21:23.606Z,100341.74
2022-11-05T11:24:56.668Z,100348.73
2022-11-05T11:28:29.810Z,100355.99
2022-11-05T11:31:59.308Z,100361.13
2022-11-05T11:35:27.917Z,100365.75
2022-11-05T11:39:02.922Z,100371.45
2022-11-05T11:42:37.438Z,100364.20
2022-11-05T11:46:11.148Z,100367.71
2022-11-05T11:49:47.153Z,100369.00
2022-11-05T11:53:30.683Z,100369.58
2022-11-05T11:57:01.399Z,100361.23
2022-11-05T12:00:29.423Z,100362.61
2022-11-05T12:04:01.530Z,100358.52
2022-11-05T12:07:41.958Z,100353.77
2022-11-05T12:11:14.705Z,100355.80
2022-11-05T12:14:51.602Z,100363.02
2022-11-05T12:18:28.505Z,100367.03
2022-11-05T12:22:15.115Z,100368.83
2022-11-05T12:25:48.504Z,100376.52
2022-11-05T12:29:35.795Z,100383.35
2022-11-05T12:33:23.282Z,100389.52
2022-11-05T12:37:13.282Z,100390.09
2022-11-05T12:40:53.467Z,100391.91
2022-11-05T12:44:39.802Z,100388.92
2022-11-05T12:48:30.309Z,100387.55
2022-11-05T12:52:22.008Z,100391.94
2022-11-05T12:55:51.578Z,100401.66
2022-11-05T12:59:24.862Z,100403.70
2022-11-05T13:02:58.307Z,100405.11
2022-11-05T13:06:31.904Z,100398.54
2022-11-05T13:10:04.946Z,100405.96
2022-11-05T13:13:38.713Z,100416.30
2022-11-05T13:17:05.227Z,100419.95
2022-11-05T13:20:39.074Z,100428.30
2022-11-05T13:24:15.927Z,100433.31
2022-11-05T13:27:54.159Z,100433.39
2022-11-05T13:31:26.021Z,100439.67
2022-11-05T13:34:56.581Z,100442.65
2022-11-05T13:38:45.989Z,100445.06
2022-11-05T13:42:37.729Z,100449.64
2022-11-05T13:46:25.894Z,100451.16
2022-11-05T13:50:19.489Z,100450.27
2022-11-05T13:54:04.477Z,100459.10
2022-11-05T13:57:54.224Z,100459.80
2022-11-05T14:01:40.777Z,100462.06
2022-11-05T14:05:10.542Z,100457.28
2022-11-05T14:08:46.392Z,100463.59
2022-11-05T14:12:25.836Z,100465.23
2022-11-05T14:16:04.122Z,100470.75
2022-11-05T14:19:38.675Z,100473.27
2022-11-05T14:23:37.863Z,100470.35
2022-11-05T14:27:45.076Z,100468.16
2022-11-05T14:31:41.374Z,100469.48
2022-11-05T14:35:40.357Z,100483.56
2022-11-05T14:39:27.559Z,100492.66
2022-11-05T14:43:02.076Z,100492.16
2022-11-05T14:46:41.111Z,100498.80
2022-11-05T14:50:17.699Z,100499.70
2022-11-05T14:53:46.540Z,100505.41
2022-11-05T14:57:17.791Z,100509.45
2022-11-05T15:00:51.236Z,100512.98
2022-11-05T15:04:30.785Z,100515.85
2022-11-05T15:08:01.486Z,100520.27
2022-11-05T15:11:35.033Z,100529.40
2022-11-05T15:15:04.964Z,100529.03
2022-11-05T15:18:35.901Z,100532.07
2022-11-05T15:22:05.927Z,100532.17
2022-11-05T15:25:53.688Z,100538.79
2022-11-05T15:29:25.222Z,100545.41
2022-11-05T15:32:52.510Z,100555.69
2022-11-05T15:36:25.576Z,100562.45
2022-11-05T15:39:54.803Z,100569.23
2022-11-05T15:43:22.314Z,100577.04
2022-11-05T15:46:49.427Z,100579.90
2022-11-05T15:50:17.959Z,100585.88
2022-11-05T15:54:28.917Z,100587.27
2022-11-05T15:57:51.280Z,100587.23
2022-11-05T16:01:29.891Z,100590.19
2022-11-05T16:04:58.965Z,100595.39
2022-11-05T16:08:28.726Z,100599.94
2022-11-05T16:12:16.746Z,100601.14
2022-11-05T16:15:57.100Z,100605.98
2022-11-05T16:19:43.299Z,100604.75
2022-11-05T16:23:26.513Z,100609.34
2022-11-05T16:27:03.529Z,100612.95
2022-11-05T16:30:32.145Z,100621.72
2022-11-05T16:34:01.047Z,100629.33
2022-11-05T16:37:29.799Z,100630.71
2022-11-05T16:41:00.942Z,100636.91
2022-11-05T16:44:27.892Z,100642.70
2022-11-05T16:47:55.683Z,100644.16
2022-11-05T16:51:27.230Z,100647.15
2022-11-05T16:54:54.935Z,100657.27
2022-11-05T16:58:24.490Z,100662.50
2022-11-05T17:01:55.608Z,100666.42
2022-11-05T17:05:26.727Z,100661.81
2022-11-05T17:08:54.182Z,100661.60
2022-11-05T17:12:21.090Z,100662.16
2022-11-05T17:15:50.394Z,100669.64
2022-11-05T17:19:18.843Z,100674.10
2022-11-05T17:22:45.740Z,100674.77
2022-11-05T17:26:15.353Z,100677.41
2022-11-05T17:29:43.286Z,100676.55
2022-11-05T17:33:12.445Z,100681.40
2022-11-05T17:36:43.003Z,100688.81
2022-11-05T17:40:14.546Z,100692.16
2022-11-05T17:43:45.557Z,100692.59
2022-11-05T17:47:15.159Z,100695.93
2022-11-05T17:50:45.106Z,100703.27
2022-11-05T17:54:12.875Z,100708.62
2022-11-05T17:57:41.017Z,100715.56
2022-11-05T18:01:10.694Z,100715.63
2022-11-05T18:04:38.328Z,100719.55
2022-11-05T18:08:06.380Z,100721.12
2022-11-05T18:11:34.060Z,100730.20
2022-11-05T18:15:05.828Z,100737.88
2022-11-05T18:18:35.437Z,100742.63
2022-11-05T18:22:04.195Z,100744.77
2022-11-05T18:25:35.472Z,100744.77
2022-11-05T18:29:06.658Z,100753.17
2022-11-05T18:32:34.651Z,100758.11
2022-11-05T18:36:05.765Z,100757.84
2022-11-05T18:39:34.339Z,100763.25
2022-11-05T18:43:03.646Z,100761.52
2022-11-05T18:46:56.376Z,100765.30
2022-11-05T18:50:20.295Z,100764.42
2022-11-05T18:53:46.910Z,100769.95
2022-11-05T18:57:14.255Z,100768.88
2022-11-05T19:00:43.584Z,100774.76
2022-11-05T19:04:11.663Z,100771.58
2022-11-05T19:07:40.729Z,100774.04
2022-11-05T19:11:13.830Z,100775.85
2022-11-05T19:14:45.414Z,100779.52
2022-11-05T19:18:12.528Z,100780.96
2022-11-05T19:21:40.181Z,100783.75
2022-11-05T19:25:09.821Z,100789.61
2022-11-05T19:28:37.833Z,100787.46
2022-11-05T19:32:07.922Z,100785.84
2022-11-05T19:35:40.840Z,100786.95
2022-11-05T19:39:10.620Z,100792.70
2022-11-05T19:42:40.178Z,100798.37
2022-11-05T19:46:11.553Z,100803.09
2022-11-05T19:49:38.255Z,100804.69
2022-11-05T19:53:06.943Z,100801.88
2022-11-05T19:56:37.224Z,100803.73
2022-11-05T20:00:04.398Z,100806.34
2022-11-05T20:03:38.932Z,100814.16
2022-11-05T20:07:08.233Z,100814.06
2022-11-05T20:10:38.172Z,100814.86
2022-11-05T20:14:09.215Z,100817.38
2022-11-05T20:17:39.403Z,100819.55
2022-11-05T20:21:09.291Z,100817.24
2022-11-05T20:24:36.797Z,100822.85
2022-11-05T20:28:03.945Z,100829.47
2022-11-05T20:31:31.376Z,100833.98
2022-11-05T20:35:00.267Z,100840.39
2022-11-05T20:38:31.877Z,100838.64
2022-11-05T20:42:03.226Z,100839.92
2022-11-05T20:45:36.578Z,100836.86
2022-11-05T20:49:04.746Z,100843.92
2022-11-05T20:52:47.164Z,100841.45
2022-11-05T20:56:24.656Z,100837.94
2022-11-05T21:03:50.187Z,100849.27
2022-11-05T21:07:34.603Z,100846.91
2022-11-05T21:11:09.909Z,100846.98
2022-11-05T21:14:41.517Z,100851.22
2022-11-05T21:18:09.574Z,100855.02
2022-11-05T21:21:41.061Z,100854.49
2022-11-05T21:25:16.077Z,100852.83
2022-11-05T21:28:46.950Z,100855.57
2022-11-05T21:32:22.605Z,100860.38
2022-11-05T21:35:54.067Z,100861.02
2022-11-05T21:39:25.309Z,100864.58
2022-11-05T21:42:55.160Z,100863.07
2022-11-05T21:46:26.023Z,100864.83
2022-11-05T21:49:56.149Z,100865.69
2022-11-05T21:53:49.749Z,100867.76
2022-11-05T22:01:30.217Z,100870.52
2022-11-05T22:05:03.542Z,100873.67
2022-11-05T22:08:42.750Z,100875.85
2022-11-05T22:12:18.458Z,100881.06
2022-11-05T22:16:02.273Z,100882.77
2022-11-05T22:19:31.042Z,100886.37
2022-11-05T22:23:03.814Z,100887.71
2022-11-05T22:26:37.261Z,100889.09
2022-11-05T22:30:07.919Z,100890.28
2022-11-05T22:33:39.845Z,100893.20
2022-11-05T22:37:12.516Z,100896.77
2022-11-05T22:40:42.167Z,100895.70
2022-11-05T22:44:10.843Z,100895.14
2022-11-05T22:47:38.160Z,100893.49
2022-11-05T22:51:12.643Z,100892.35
2022-11-05T22:54:40.558Z,100895.78
2022-11-05T22:58:07.710Z,100891.18
2022-11-05T23:01:35.381Z,100899.45
2022-11-05T23:05:02.398Z,100891.54
2022-11-05T23:08:59.414Z,100891.36
2022-11-05T23:12:29.493Z,100895.72
2022-11-05T23:16:16.596Z,100900.09
2022-11-05T23:20:02.647Z,100900.50
2022-11-05T23:23:47.579Z,100904.38
2022-11-05T23:27:15.041Z,100897.64
2022-11-05T23:30:59.526Z,100901.55
2022-11-05T23:34:29.447Z,100902.56
2022-11-05T23:38:14.712Z,100900.64
2022-11-05T23:41:59.349Z,100899.58
2022-11-05T23:45:45.667Z,100897.59
2022-11-05T23:49:12.536Z,100899.56
2022-11-05T23:52:39.975Z,100900.77
2022-11-05T23:56:10.629Z,100900.44
2022-11-05T23:59:37.611Z,100902.85
